sensor_id;sensor_type;location;lat;lon;timestamp;temperature;humidity
20246;DHT22;10281;54.406;18.556;2023-10-13T00:00:25;8.70;99.90
20246;DHT22;10281;54.406;18.556;2023-10-13T00:02:54;8.70;99.90
20246;DHT22;10281;54.406;18.556;2023-10-13T00:05:21;8.70;99.90
20246;DHT22;10281;54.406;18.556;2023-10-13T00:07:50;8.70;99.90
20246;DHT22;10281;54.406;18.556;2023-10-13T00:10:16;8.70;99.90
20246;DHT22;10281;54.406;18.556;2023-10-13T00:12:44;8.70;99.90
20246;DHT22;10281;54.406;18.556;2023-10-13T00:15:17;8.60;99.90
20246;DHT22;10281;54.406;18.556;2023-10-13T00:17:46;8.50;99.90
20246;DHT22;10281;54.406;18.556;2023-10-13T00:20:12;8.40;99.90
20246;DHT22;10281;54.406;18.556;2023-10-13T00:22:41;8.30;99.90
20246;DHT22;10281;54.406;18.556;2023-10-13T00:25:08;8.30;99.90
20246;DHT22;10281;54.406;18.556;2023-10-13T00:27:37;8.30;99.90
20246;DHT22;10281;54.406;18.556;2023-10-13T00:30:07;8.30;99.90
20246;DHT22;10281;54.406;18.556;2023-10-13T00:32:39;8.30;99.90
20246;DHT22;10281;54.406;18.556;2023-10-13T00:35:10;8.30;99.90
20246;DHT22;10281;54.406;18.556;2023-10-13T00:37:40;8.30;99.90
20246;DHT22;10281;54.406;18.556;2023-10-13T00:40:10;8.30;99.90
20246;DHT22;10281;54.406;18.556;2023-10-13T00:42:42;8.30;99.90
20246;DHT22;10281;54.406;18.556;2023-10-13T00:45:15;8.20;99.90
20246;DHT22;10281;54.406;18.556;2023-10-13T00:47:44;8.20;99.90
20246;DHT22;10281;54.406;18.556;2023-10-13T00:50:16;8.20;99.90
20246;DHT22;10281;54.406;18.556;2023-10-13T00:52:45;8.20;99.90
20246;DHT22;10281;54.406;18.556;2023-10-13T00:55:15;8.20;99.90
20246;DHT22;10281;54.406;18.556;2023-10-13T00:57:44;8.20;99.90
20246;DHT22;10281;54.406;18.556;2023-10-13T01:00:13;8.20;99.90
20246;DHT22;10281;54.406;18.556;2023-10-13T01:02:45;8.20;99.90
20246;DHT22;10281;54.406;18.556;2023-10-13T01:05:14;8.20;99.90
20246;DHT22;10281;54.406;18.556;2023-10-13T01:07:43;8.20;99.90
20246;DHT22;10281;54.406;18.556;2023-10-13T01:10:10;8.10;99.90
20246;DHT22;10281;54.406;18.556;2023-10-13T01:12:41;8.10;99.90
20246;DHT22;10281;54.406;18.556;2023-10-13T01:15:09;8.10;99.90
20246;DHT22;10281;54.406;18.556;2023-10-13T01:17:37;8.20;99.90
20246;DHT22;10281;54.406;18.556;2023-10-13T01:20:04;8.20;99.90
20246;DHT22;10281;54.406;18.556;2023-10-13T01:22:31;8.10;99.90
20246;DHT22;10281;54.406;18.556;2023-10-13T01:24:58;8.10;99.90
20246;DHT22;10281;54.406;18.556;2023-10-13T01:27:39;8.10;99.90
20246;DHT22;10281;54.406;18.556;2023-10-13T01:30:07;8.10;99.90
20246;DHT22;10281;54.406;18.556;2023-10-13T01:32:38;8.00;99.90
20246;DHT22;10281;54.406;18.556;2023-10-13T01:35:08;8.00;99.90
20246;DHT22;10281;54.406;18.556;2023-10-13T01:37:35;8.00;99.90
20246;DHT22;10281;54.406;18.556;2023-10-13T01:40:02;8.00;99.90
20246;DHT22;10281;54.406;18.556;2023-10-13T01:42:30;8.00;99.90
20246;DHT22;10281;54.406;18.556;2023-10-13T01:44:56;8.00;99.90
20246;DHT22;10281;54.406;18.556;2023-10-13T01:47:25;8.00;99.90
20246;DHT22;10281;54.406;18.556;2023-10-13T01:49:53;7.90;99.90
20246;DHT22;10281;54.406;18.556;2023-10-13T01:52:22;7.90;99.90
20246;DHT22;10281;54.406;18.556;2023-10-13T01:54:51;7.90;99.90
20246;DHT22;10281;54.406;18.556;2023-10-13T01:57:17;7.90;99.90
20246;DHT22;10281;54.406;18.556;2023-10-13T01:59:45;7.80;99.90
20246;DHT22;10281;54.406;18.556;2023-10-13T02:02:14;7.80;99.90
20246;DHT22;10281;54.406;18.556;2023-10-13T02:04:43;7.80;99.90
20246;DHT22;10281;54.406;18.556;2023-10-13T02:07:21;7.80;99.90
20246;DHT22;10281;54.406;18.556;2023-10-13T02:09:50;7.80;99.90
20246;DHT22;10281;54.406;18.556;2023-10-13T02:12:16;7.80;99.90
20246;DHT22;10281;54.406;18.556;2023-10-13T02:14:43;7.80;99.90
20246;DHT22;10281;54.406;18.556;2023-10-13T02:17:10;7.70;99.90
20246;DHT22;10281;54.406;18.556;2023-10-13T02:19:39;7.80;99.90
20246;DHT22;10281;54.406;18.556;2023-10-13T02:22:08;7.80;99.90
20246;DHT22;10281;54.406;18.556;2023-10-13T02:24:36;7.80;99.90
20246;DHT22;10281;54.406;18.556;2023-10-13T02:27:08;7.70;99.90
20246;DHT22;10281;54.406;18.556;2023-10-13T02:29:38;7.70;99.90
20246;DHT22;10281;54.406;18.556;2023-10-13T02:32:06;7.80;99.90
20246;DHT22;10281;54.406;18.556;2023-10-13T02:34:35;7.80;99.90
20246;DHT22;10281;54.406;18.556;2023-10-13T02:37:01;7.70;99.90
20246;DHT22;10281;54.406;18.556;2023-10-13T02:39:28;7.80;99.90
20246;DHT22;10281;54.406;18.556;2023-10-13T02:41:57;7.80;99.90
20246;DHT22;10281;54.406;18.556;2023-10-13T02:44:24;7.80;99.90
20246;DHT22;10281;54.406;18.556;2023-10-13T02:46:56;7.80;99.90
20246;DHT22;10281;54.406;18.556;2023-10-13T02:49:24;7.80;99.90
20246;DHT22;10281;54.406;18.556;2023-10-13T02:51:53;7.80;99.90
20246;DHT22;10281;54.406;18.556;2023-10-13T02:54:21;7.80;99.90
20246;DHT22;10281;54.406;18.556;2023-10-13T02:56:48;7.80;99.90
20246;DHT22;10281;54.406;18.556;2023-10-13T02:59:17;7.80;99.90
20246;DHT22;10281;54.406;18.556;2023-10-13T03:01:46;7.80;99.90
20246;DHT22;10281;54.406;18.556;2023-10-13T03:04:13;7.80;99.90
20246;DHT22;10281;54.406;18.556;2023-10-13T03:06:39;7.80;99.90
20246;DHT22;10281;54.406;18.556;2023-10-13T03:09:08;7.80;99.90
20246;DHT22;10281;54.406;18.556;2023-10-13T03:11:42;7.80;99.90
20246;DHT22;10281;54.406;18.556;2023-10-13T03:14:11;7.80;99.90
20246;DHT22;10281;54.406;18.556;2023-10-13T03:16:40;7.70;99.90
20246;DHT22;10281;54.406;18.556;2023-10-13T03:19:07;7.70;99.90
20246;DHT22;10281;54.406;18.556;2023-10-13T03:21:35;7.70;99.90
20246;DHT22;10281;54.406;18.556;2023-10-13T03:24:03;7.60;99.90
20246;DHT22;10281;54.406;18.556;2023-10-13T03:26:33;7.60;99.90
20246;DHT22;10281;54.406;18.556;2023-10-13T03:29:03;7.60;99.90
20246;DHT22;10281;54.406;18.556;2023-10-13T03:31:32;7.60;99.90
20246;DHT22;10281;54.406;18.556;2023-10-13T03:34:00;7.50;99.90
20246;DHT22;10281;54.406;18.556;2023-10-13T03:36:27;7.50;99.90
20246;DHT22;10281;54.406;18.556;2023-10-13T03:38:59;7.50;99.90
20246;DHT22;10281;54.406;18.556;2023-10-13T03:41:26;7.50;99.90
20246;DHT22;10281;54.406;18.556;2023-10-13T03:43:54;7.40;99.90
20246;DHT22;10281;54.406;18.556;2023-10-13T03:46:23;7.40;99.90
20246;DHT22;10281;54.406;18.556;2023-10-13T03:48:50;7.40;99.90
20246;DHT22;10281;54.406;18.556;2023-10-13T03:51:20;7.30;99.90
20246;DHT22;10281;54.406;18.556;2023-10-13T03:53:47;7.30;99.90
20246;DHT22;10281;54.406;18.556;2023-10-13T03:56:23;7.30;99.90
20246;DHT22;10281;54.406;18.556;2023-10-13T03:58:53;7.30;99.90
20246;DHT22;10281;54.406;18.556;2023-10-13T04:01:21;7.30;99.90
20246;DHT22;10281;54.406;18.556;2023-10-13T04:03:50;7.30;99.90
20246;DHT22;10281;54.406;18.556;2023-10-13T04:06:23;7.30;99.90
20246;DHT22;10281;54.406;18.556;2023-10-13T04:09:07;7.30;99.90
20246;DHT22;10281;54.406;18.556;2023-10-13T04:11:39;7.20;99.90
20246;DHT22;10281;54.406;18.556;2023-10-13T04:14:12;7.20;99.90
20246;DHT22;10281;54.406;18.556;2023-10-13T04:16:44;7.20;99.90
20246;DHT22;10281;54.406;18.556;2023-10-13T04:19:18;7.20;99.90
20246;DHT22;10281;54.406;18.556;2023-10-13T04:21:48;7.20;99.90
20246;DHT22;10281;54.406;18.556;2023-10-13T04:24:20;7.20;99.90
20246;DHT22;10281;54.406;18.556;2023-10-13T04:27:07;7.20;99.90
20246;DHT22;10281;54.406;18.556;2023-10-13T04:29:49;7.20;99.90
20246;DHT22;10281;54.406;18.556;2023-10-13T04:32:20;7.20;99.90
20246;DHT22;10281;54.406;18.556;2023-10-13T04:34:52;7.20;99.90
20246;DHT22;10281;54.406;18.556;2023-10-13T04:37:21;7.20;99.90
20246;DHT22;10281;54.406;18.556;2023-10-13T04:40:00;7.10;99.90
20246;DHT22;10281;54.406;18.556;2023-10-13T04:42:29;7.10;99.90
20246;DHT22;10281;54.406;18.556;2023-10-13T04:45:01;7.10;99.90
20246;DHT22;10281;54.406;18.556;2023-10-13T04:47:30;7.10;99.90
20246;DHT22;10281;54.406;18.556;2023-10-13T04:49:59;7.10;99.90
20246;DHT22;10281;54.406;18.556;2023-10-13T04:52:27;7.10;99.90
20246;DHT22;10281;54.406;18.556;2023-10-13T04:54:59;7.00;99.90
20246;DHT22;10281;54.406;18.556;2023-10-13T04:57:28;6.90;99.90
20246;DHT22;10281;54.406;18.556;2023-10-13T05:00:04;7.00;99.90
20246;DHT22;10281;54.406;18.556;2023-10-13T05:02:42;7.00;99.90
20246;DHT22;10281;54.406;18.556;2023-10-13T05:05:14;7.00;99.90
20246;DHT22;10281;54.406;18.556;2023-10-13T05:07:59;7.00;99.90
20246;DHT22;10281;54.406;18.556;2023-10-13T05:10:34;6.90;99.90
20246;DHT22;10281;54.406;18.556;2023-10-13T05:13:06;6.90;99.90
20246;DHT22;10281;54.406;18.556;2023-10-13T05:15:44;7.00;99.90
20246;DHT22;10281;54.406;18.556;2023-10-13T05:18:16;6.90;99.90
20246;DHT22;10281;54.406;18.556;2023-10-13T05:20:48;6.90;99.90
20246;DHT22;10281;54.406;18.556;2023-10-13T05:23:20;6.90;99.90
20246;DHT22;10281;54.406;18.556;2023-10-13T05:25:53;6.90;99.90
20246;DHT22;10281;54.406;18.556;2023-10-13T05:28:25;6.90;99.90
20246;DHT22;10281;54.406;18.556;2023-10-13T05:30:59;7.00;99.90
20246;DHT22;10281;54.406;18.556;2023-10-13T05:33:32;7.00;99.90
20246;DHT22;10281;54.406;18.556;2023-10-13T05:36:10;7.00;99.90
20246;DHT22;10281;54.406;18.556;2023-10-13T05:38:42;7.00;99.90
20246;DHT22;10281;54.406;18.556;2023-10-13T05:41:15;7.00;99.90
20246;DHT22;10281;54.406;18.556;2023-10-13T05:43:48;7.00;99.90
20246;DHT22;10281;54.406;18.556;2023-10-13T05:46:21;7.00;99.90
20246;DHT22;10281;54.406;18.556;2023-10-13T05:48:58;7.00;99.90
20246;DHT22;10281;54.406;18.556;2023-10-13T05:51:44;7.10;99.90
20246;DHT22;10281;54.406;18.556;2023-10-13T05:54:16;7.10;99.90
20246;DHT22;10281;54.406;18.556;2023-10-13T05:56:57;7.10;99.90
20246;DHT22;10281;54.406;18.556;2023-10-13T05:59:31;7.20;99.90
20246;DHT22;10281;54.406;18.556;2023-10-13T06:02:03;7.20;99.90
20246;DHT22;10281;54.406;18.556;2023-10-13T06:04:36;7.20;99.90
20246;DHT22;10281;54.406;18.556;2023-10-13T06:07:08;7.20;99.90
20246;DHT22;10281;54.406;18.556;2023-10-13T06:09:40;7.20;99.90
20246;DHT22;10281;54.406;18.556;2023-10-13T06:12:13;7.20;99.90
20246;DHT22;10281;54.406;18.556;2023-10-13T06:14:46;7.30;99.90
20246;DHT22;10281;54.406;18.556;2023-10-13T06:17:18;7.30;99.90
20246;DHT22;10281;54.406;18.556;2023-10-13T06:19:51;7.30;99.90
20246;DHT22;10281;54.406;18.556;2023-10-13T06:22:23;7.40;99.90
20246;DHT22;10281;54.406;18.556;2023-10-13T06:24:55;7.40;99.90
20246;DHT22;10281;54.406;18.556;2023-10-13T06:27:28;7.40;99.90
20246;DHT22;10281;54.406;18.556;2023-10-13T06:30:01;7.50;99.90
20246;DHT22;10281;54.406;18.556;2023-10-13T06:32:29;7.50;99.90
20246;DHT22;10281;54.406;18.556;2023-10-13T06:34:56;7.60;99.90
20246;DHT22;10281;54.406;18.556;2023-10-13T06:37:25;7.60;99.90
20246;DHT22;10281;54.406;18.556;2023-10-13T06:39:53;7.70;99.90
20246;DHT22;10281;54.406;18.556;2023-10-13T06:42:23;7.80;99.90
20246;DHT22;10281;54.406;18.556;2023-10-13T06:44:52;7.80;99.90
20246;DHT22;10281;54.406;18.556;2023-10-13T06:47:22;7.90;99.90
20246;DHT22;10281;54.406;18.556;2023-10-13T06:49:50;8.00;99.90
20246;DHT22;10281;54.406;18.556;2023-10-13T06:52:21;8.10;99.90
20246;DHT22;10281;54.406;18.556;2023-10-13T06:54:50;8.20;99.90
20246;DHT22;10281;54.406;18.556;2023-10-13T06:57:17;8.30;99.90
20246;DHT22;10281;54.406;18.556;2023-10-13T06:59:47;8.40;99.90
20246;DHT22;10281;54.406;18.556;2023-10-13T07:02:14;8.50;99.90
20246;DHT22;10281;54.406;18.556;2023-10-13T07:04:48;8.50;99.90
20246;DHT22;10281;54.406;18.556;2023-10-13T07:07:17;8.60;99.90
20246;DHT22;10281;54.406;18.556;2023-10-13T07:09:44;8.70;99.90
20246;DHT22;10281;54.406;18.556;2023-10-13T07:12:17;8.80;99.90
20246;DHT22;10281;54.406;18.556;2023-10-13T07:14:48;8.90;99.90
20246;DHT22;10281;54.406;18.556;2023-10-13T07:17:19;8.90;99.90
20246;DHT22;10281;54.406;18.556;2023-10-13T07:19:52;9.00;99.90
20246;DHT22;10281;54.406;18.556;2023-10-13T07:22:19;9.10;99.90
20246;DHT22;10281;54.406;18.556;2023-10-13T07:24:47;9.20;99.90
20246;DHT22;10281;54.406;18.556;2023-10-13T07:27:17;9.30;99.90
20246;DHT22;10281;54.406;18.556;2023-10-13T07:29:50;9.50;99.90
20246;DHT22;10281;54.406;18.556;2023-10-13T07:32:20;9.60;99.90
20246;DHT22;10281;54.406;18.556;2023-10-13T07:34:48;9.70;99.90
20246;DHT22;10281;54.406;18.556;2023-10-13T07:37:15;9.80;99.90
20246;DHT22;10281;54.406;18.556;2023-10-13T07:39:42;9.90;99.90
20246;DHT22;10281;54.406;18.556;2023-10-13T07:42:09;10.00;99.90
20246;DHT22;10281;54.406;18.556;2023-10-13T07:44:44;10.10;99.90
20246;DHT22;10281;54.406;18.556;2023-10-13T07:47:12;10.20;99.90
20246;DHT22;10281;54.406;18.556;2023-10-13T07:49:40;10.30;99.90
20246;DHT22;10281;54.406;18.556;2023-10-13T07:52:09;10.40;99.90
20246;DHT22;10281;54.406;18.556;2023-10-13T07:54:58;10.60;99.90
20246;DHT22;10281;54.406;18.556;2023-10-13T07:57:26;10.70;99.90
20246;DHT22;10281;54.406;18.556;2023-10-13T07:59:56;10.80;99.90
20246;DHT22;10281;54.406;18.556;2023-10-13T08:02:24;10.90;99.90
20246;DHT22;10281;54.406;18.556;2023-10-13T08:04:57;11.00;99.90
20246;DHT22;10281;54.406;18.556;2023-10-13T08:07:23;11.10;99.90
20246;DHT22;10281;54.406;18.556;2023-10-13T08:09:52;11.20;99.90
20246;DHT22;10281;54.406;18.556;2023-10-13T08:12:19;11.30;99.90
20246;DHT22;10281;54.406;18.556;2023-10-13T08:14:48;11.40;99.90
20246;DHT22;10281;54.406;18.556;2023-10-13T08:17:14;11.50;99.90
20246;DHT22;10281;54.406;18.556;2023-10-13T08:19:41;11.60;99.90
20246;DHT22;10281;54.406;18.556;2023-10-13T08:22:11;11.70;99.90
20246;DHT22;10281;54.406;18.556;2023-10-13T08:24:51;11.80;99.90
20246;DHT22;10281;54.406;18.556;2023-10-13T08:27:24;11.90;99.90
20246;DHT22;10281;54.406;18.556;2023-10-13T08:30:04;12.00;99.90
20246;DHT22;10281;54.406;18.556;2023-10-13T08:32:36;12.10;99.90
20246;DHT22;10281;54.406;18.556;2023-10-13T08:35:05;12.20;99.90
20246;DHT22;10281;54.406;18.556;2023-10-13T08:37:36;12.30;99.90
20246;DHT22;10281;54.406;18.556;2023-10-13T08:40:09;12.30;99.90
20246;DHT22;10281;54.406;18.556;2023-10-13T08:42:41;12.40;99.90
20246;DHT22;10281;54.406;18.556;2023-10-13T08:45:26;12.40;99.90
20246;DHT22;10281;54.406;18.556;2023-10-13T08:48:11;12.40;99.90
20246;DHT22;10281;54.406;18.556;2023-10-13T08:50:47;12.50;99.90
20246;DHT22;10281;54.406;18.556;2023-10-13T08:53:21;12.60;99.90
20246;DHT22;10281;54.406;18.556;2023-10-13T08:56:00;12.60;99.90
20246;DHT22;10281;54.406;18.556;2023-10-13T08:58:31;12.70;99.90
20246;DHT22;10281;54.406;18.556;2023-10-13T09:01:03;12.80;99.90
20246;DHT22;10281;54.406;18.556;2023-10-13T09:03:40;12.90;99.90
20246;DHT22;10281;54.406;18.556;2023-10-13T09:06:12;12.90;99.90
20246;DHT22;10281;54.406;18.556;2023-10-13T09:08:41;12.90;99.90
20246;DHT22;10281;54.406;18.556;2023-10-13T09:11:31;12.90;99.90
20246;DHT22;10281;54.406;18.556;2023-10-13T09:14:00;12.80;99.90
20246;DHT22;10281;54.406;18.556;2023-10-13T09:16:29;12.90;99.90
20246;DHT22;10281;54.406;18.556;2023-10-13T09:19:02;12.90;99.90
20246;DHT22;10281;54.406;18.556;2023-10-13T09:21:38;12.90;99.90
20246;DHT22;10281;54.406;18.556;2023-10-13T09:24:13;12.90;99.90
20246;DHT22;10281;54.406;18.556;2023-10-13T09:26:46;13.00;99.90
20246;DHT22;10281;54.406;18.556;2023-10-13T09:29:17;13.00;99.90
20246;DHT22;10281;54.406;18.556;2023-10-13T09:31:47;13.00;99.90
20246;DHT22;10281;54.406;18.556;2023-10-13T09:34:21;13.00;99.90
20246;DHT22;10281;54.406;18.556;2023-10-13T09:36:50;13.00;99.90
20246;DHT22;10281;54.406;18.556;2023-10-13T09:39:19;13.00;99.90
20246;DHT22;10281;54.406;18.556;2023-10-13T09:41:51;13.00;99.90
20246;DHT22;10281;54.406;18.556;2023-10-13T09:44:20;13.00;99.90
20246;DHT22;10281;54.406;18.556;2023-10-13T09:46:47;13.00;99.90
20246;DHT22;10281;54.406;18.556;2023-10-13T09:49:18;13.10;99.90
20246;DHT22;10281;54.406;18.556;2023-10-13T09:51:52;13.10;99.90
20246;DHT22;10281;54.406;18.556;2023-10-13T09:54:26;13.10;99.90
20246;DHT22;10281;54.406;18.556;2023-10-13T09:56:57;13.10;99.90
20246;DHT22;10281;54.406;18.556;2023-10-13T09:59:52;13.20;99.90
20246;DHT22;10281;54.406;18.556;2023-10-13T10:02:22;13.10;99.90
20246;DHT22;10281;54.406;18.556;2023-10-13T10:04:54;13.20;99.90
20246;DHT22;10281;54.406;18.556;2023-10-13T10:07:25;13.20;99.90
20246;DHT22;10281;54.406;18.556;2023-10-13T10:09:56;13.20;99.90
20246;DHT22;10281;54.406;18.556;2023-10-13T10:12:38;13.30;99.90
20246;DHT22;10281;54.406;18.556;2023-10-13T10:17:56;13.30;99.90
20246;DHT22;10281;54.406;18.556;2023-10-13T10:20:30;13.40;99.90
20246;DHT22;10281;54.406;18.556;2023-10-13T10:23:01;13.50;99.90
20246;DHT22;10281;54.406;18.556;2023-10-13T10:25:31;13.50;99.90
20246;DHT22;10281;54.406;18.556;2023-10-13T10:28:04;13.60;99.90
20246;DHT22;10281;54.406;18.556;2023-10-13T10:30:33;13.60;99.90
20246;DHT22;10281;54.406;18.556;2023-10-13T10:33:01;13.60;99.90
20246;DHT22;10281;54.406;18.556;2023-10-13T10:35:30;13.70;99.90
20246;DHT22;10281;54.406;18.556;2023-10-13T10:40:49;13.70;99.90
20246;DHT22;10281;54.406;18.556;2023-10-13T10:43:26;13.80;99.90
20246;DHT22;10281;54.406;18.556;2023-10-13T10:45:54;13.90;99.90
20246;DHT22;10281;54.406;18.556;2023-10-13T10:48:23;13.80;99.90
20246;DHT22;10281;54.406;18.556;2023-10-13T10:50:52;13.80;99.90
20246;DHT22;10281;54.406;18.556;2023-10-13T10:53:21;13.90;99.90
20246;DHT22;10281;54.406;18.556;2023-10-13T10:55:48;13.90;99.90
20246;DHT22;10281;54.406;18.556;2023-10-13T10:58:15;13.90;99.90
20246;DHT22;10281;54.406;18.556;2023-10-13T11:00:48;14.00;99.90
20246;DHT22;10281;54.406;18.556;2023-10-13T11:03:16;13.90;99.90
20246;DHT22;10281;54.406;18.556;2023-10-13T11:05:45;13.90;99.90
20246;DHT22;10281;54.406;18.556;2023-10-13T11:08:23;13.90;99.90
20246;DHT22;10281;54.406;18.556;2023-10-13T11:10:55;14.00;99.90
20246;DHT22;10281;54.406;18.556;2023-10-13T11:13:22;13.90;99.90
20246;DHT22;10281;54.406;18.556;2023-10-13T11:15:49;14.00;99.90
20246;DHT22;10281;54.406;18.556;2023-10-13T11:18:16;14.00;99.90
20246;DHT22;10281;54.406;18.556;2023-10-13T11:20:55;14.00;99.90
20246;DHT22;10281;54.406;18.556;2023-10-13T11:23:20;14.10;99.90
20246;DHT22;10281;54.406;18.556;2023-10-13T11:25:58;14.10;99.90
20246;DHT22;10281;54.406;18.556;2023-10-13T11:28:25;14.10;99.90
20246;DHT22;10281;54.406;18.556;2023-10-13T11:30:55;14.10;99.90
20246;DHT22;10281;54.406;18.556;2023-10-13T11:33:27;14.10;99.90
20246;DHT22;10281;54.406;18.556;2023-10-13T11:35:56;14.10;99.90
20246;DHT22;10281;54.406;18.556;2023-10-13T11:38:28;14.10;99.90
20246;DHT22;10281;54.406;18.556;2023-10-13T11:41:00;14.10;99.90
20246;DHT22;10281;54.406;18.556;2023-10-13T11:43:39;14.20;99.90
20246;DHT22;10281;54.406;18.556;2023-10-13T11:46:25;14.20;99.90
20246;DHT22;10281;54.406;18.556;2023-10-13T11:48:58;14.20;99.90
20246;DHT22;10281;54.406;18.556;2023-10-13T11:51:26;14.20;99.90
20246;DHT22;10281;54.406;18.556;2023-10-13T11:53:55;14.30;99.90
20246;DHT22;10281;54.406;18.556;2023-10-13T11:56:21;14.30;99.90
20246;DHT22;10281;54.406;18.556;2023-10-13T11:58:49;14.30;99.90
20246;DHT22;10281;54.406;18.556;2023-10-13T12:01:16;14.40;99.90
20246;DHT22;10281;54.406;18.556;2023-10-13T12:03:49;14.50;99.90
20246;DHT22;10281;54.406;18.556;2023-10-13T12:06:21;14.50;99.90
20246;DHT22;10281;54.406;18.556;2023-10-13T12:08:51;14.60;99.90
20246;DHT22;10281;54.406;18.556;2023-10-13T12:11:18;14.60;99.90
20246;DHT22;10281;54.406;18.556;2023-10-13T12:13:51;14.70;99.90
20246;DHT22;10281;54.406;18.556;2023-10-13T12:16:17;14.70;99.90
20246;DHT22;10281;54.406;18.556;2023-10-13T12:18:45;14.80;99.90
20246;DHT22;10281;54.406;18.556;2023-10-13T12:21:13;14.90;99.90
20246;DHT22;10281;54.406;18.556;2023-10-13T12:23:42;14.90;99.90
20246;DHT22;10281;54.406;18.556;2023-10-13T12:26:11;14.90;99.90
20246;DHT22;10281;54.406;18.556;2023-10-13T12:28:39;15.00;99.90
20246;DHT22;10281;54.406;18.556;2023-10-13T12:31:08;15.00;99.90
20246;DHT22;10281;54.406;18.556;2023-10-13T12:33:37;15.00;99.90
20246;DHT22;10281;54.406;18.556;2023-10-13T12:36:03;15.00;99.90
20246;DHT22;10281;54.406;18.556;2023-10-13T12:38:38;15.00;99.90
20246;DHT22;10281;54.406;18.556;2023-10-13T12:41:10;15.00;99.90
20246;DHT22;10281;54.406;18.556;2023-10-13T12:43:42;15.10;99.90
20246;DHT22;10281;54.406;18.556;2023-10-13T12:46:14;15.20;99.90
20246;DHT22;10281;54.406;18.556;2023-10-13T12:48:47;15.10;99.90
20246;DHT22;10281;54.406;18.556;2023-10-13T12:51:19;15.10;99.90
20246;DHT22;10281;54.406;18.556;2023-10-13T12:53:48;15.20;99.90
20246;DHT22;10281;54.406;18.556;2023-10-13T12:56:16;15.20;99.90
20246;DHT22;10281;54.406;18.556;2023-10-13T12:58:44;15.20;99.90
20246;DHT22;10281;54.406;18.556;2023-10-13T13:01:13;15.10;99.90
20246;DHT22;10281;54.406;18.556;2023-10-13T13:03:40;15.20;99.90
20246;DHT22;10281;54.406;18.556;2023-10-13T13:06:15;15.20;99.90
20246;DHT22;10281;54.406;18.556;2023-10-13T13:08:39;15.10;99.90
20246;DHT22;10281;54.406;18.556;2023-10-13T13:11:08;15.10;99.90
20246;DHT22;10281;54.406;18.556;2023-10-13T13:13:34;15.10;99.90
20246;DHT22;10281;54.406;18.556;2023-10-13T13:16:01;15.00;99.90
20246;DHT22;10281;54.406;18.556;2023-10-13T13:18:29;15.00;99.90
20246;DHT22;10281;54.406;18.556;2023-10-13T13:20:56;15.00;99.90
20246;DHT22;10281;54.406;18.556;2023-10-13T13:23:22;15.00;99.90
20246;DHT22;10281;54.406;18.556;2023-10-13T13:25:52;15.00;99.90
20246;DHT22;10281;54.406;18.556;2023-10-13T13:28:19;15.00;99.90
20246;DHT22;10281;54.406;18.556;2023-10-13T13:30:47;15.00;99.90
20246;DHT22;10281;54.406;18.556;2023-10-13T13:33:17;15.00;99.90
20246;DHT22;10281;54.406;18.556;2023-10-13T13:35:45;14.90;99.90
20246;DHT22;10281;54.406;18.556;2023-10-13T13:38:14;14.90;99.90
20246;DHT22;10281;54.406;18.556;2023-10-13T13:40:45;14.80;99.90
20246;DHT22;10281;54.406;18.556;2023-10-13T13:43:13;14.80;99.90
20246;DHT22;10281;54.406;18.556;2023-10-13T13:45:44;14.80;99.90
20246;DHT22;10281;54.406;18.556;2023-10-13T13:48:11;14.80;99.90
20246;DHT22;10281;54.406;18.556;2023-10-13T13:50:40;14.70;99.90
20246;DHT22;10281;54.406;18.556;2023-10-13T13:53:07;14.70;99.90
20246;DHT22;10281;54.406;18.556;2023-10-13T13:55:35;14.60;99.90
20246;DHT22;10281;54.406;18.556;2023-10-13T13:58:04;14.60;99.90
20246;DHT22;10281;54.406;18.556;2023-10-13T14:00:33;14.60;99.90
20246;DHT22;10281;54.406;18.556;2023-10-13T14:03:05;14.60;99.90
20246;DHT22;10281;54.406;18.556;2023-10-13T14:05:34;14.60;99.90
20246;DHT22;10281;54.406;18.556;2023-10-13T14:08:00;14.60;99.90
20246;DHT22;10281;54.406;18.556;2023-10-13T14:10:27;14.50;99.90
20246;DHT22;10281;54.406;18.556;2023-10-13T14:13:01;14.50;99.90
20246;DHT22;10281;54.406;18.556;2023-10-13T14:15:35;14.50;99.90
20246;DHT22;10281;54.406;18.556;2023-10-13T14:18:04;14.50;99.90
20246;DHT22;10281;54.406;18.556;2023-10-13T14:20:33;14.50;99.90
20246;DHT22;10281;54.406;18.556;2023-10-13T14:23:01;14.50;99.90
20246;DHT22;10281;54.406;18.556;2023-10-13T14:25:30;14.40;99.90
20246;DHT22;10281;54.406;18.556;2023-10-13T14:27:59;14.50;99.90
20246;DHT22;10281;54.406;18.556;2023-10-13T14:30:25;14.50;99.90
20246;DHT22;10281;54.406;18.556;2023-10-13T14:32:54;14.50;99.90
20246;DHT22;10281;54.406;18.556;2023-10-13T14:35:22;14.50;99.90
20246;DHT22;10281;54.406;18.556;2023-10-13T14:37:52;14.50;99.90
20246;DHT22;10281;54.406;18.556;2023-10-13T14:40:19;14.50;99.90
20246;DHT22;10281;54.406;18.556;2023-10-13T14:42:47;14.50;99.90
20246;DHT22;10281;54.406;18.556;2023-10-13T14:45:14;14.50;99.90
20246;DHT22;10281;54.406;18.556;2023-10-13T14:47:43;14.50;99.90
20246;DHT22;10281;54.406;18.556;2023-10-13T14:50:11;14.50;99.90
20246;DHT22;10281;54.406;18.556;2023-10-13T14:52:42;14.50;99.90
20246;DHT22;10281;54.406;18.556;2023-10-13T14:55:09;14.50;99.90
20246;DHT22;10281;54.406;18.556;2023-10-13T14:57:38;14.50;99.90
20246;DHT22;10281;54.406;18.556;2023-10-13T15:00:06;14.50;99.90
20246;DHT22;10281;54.406;18.556;2023-10-13T15:02:34;14.50;99.90
20246;DHT22;10281;54.406;18.556;2023-10-13T15:05:02;14.60;99.90
20246;DHT22;10281;54.406;18.556;2023-10-13T15:07:28;14.60;99.90
20246;DHT22;10281;54.406;18.556;2023-10-13T15:09:55;14.60;99.90
20246;DHT22;10281;54.406;18.556;2023-10-13T15:12:23;14.60;99.90
20246;DHT22;10281;54.406;18.556;2023-10-13T15:14:51;14.60;99.90
20246;DHT22;10281;54.406;18.556;2023-10-13T15:17:22;14.60;99.90
20246;DHT22;10281;54.406;18.556;2023-10-13T15:19:50;14.60;99.90
20246;DHT22;10281;54.406;18.556;2023-10-13T15:22:16;14.60;99.90
20246;DHT22;10281;54.406;18.556;2023-10-13T15:24:45;14.60;99.90
20246;DHT22;10281;54.406;18.556;2023-10-13T15:27:13;14.70;99.90
20246;DHT22;10281;54.406;18.556;2023-10-13T15:29:41;14.70;99.90
20246;DHT22;10281;54.406;18.556;2023-10-13T15:32:07;14.70;99.90
20246;DHT22;10281;54.406;18.556;2023-10-13T15:34:40;14.70;99.90
20246;DHT22;10281;54.406;18.556;2023-10-13T15:37:07;14.70;99.90
20246;DHT22;10281;54.406;18.556;2023-10-13T15:39:35;14.70;99.90
20246;DHT22;10281;54.406;18.556;2023-10-13T15:42:02;14.80;99.90
20246;DHT22;10281;54.406;18.556;2023-10-13T15:44:28;14.80;99.90
20246;DHT22;10281;54.406;18.556;2023-10-13T15:46:57;14.80;99.90